sensor_id;sensor_type;location;lat;lon;timestamp;pressure;altitude;pressure_sealevel;temperature;humidity
47104;BME280;32853;52.164;5.400;2023-02-16T00:00:20;102208.56;;;8.81;100.00
47104;BME280;32853;52.164;5.400;2023-02-16T00:02:46;102184.31;;;8.71;100.00
47104;BME280;32853;52.164;5.400;2023-02-16T00:05:34;102229.31;;;8.91;100.00
47104;BME280;32853;52.164;5.400;2023-02-16T00:08:01;102290.72;;;9.26;100.00
47104;BME280;32853;52.164;5.400;2023-02-16T00:10:31;102297.63;;;9.28;100.00
47104;BME280;32853;52.164;5.400;2023-02-16T00:12:57;102297.78;;;9.15;100.00
47104;BME280;32853;52.164;5.400;2023-02-16T00:15:43;102282.19;;;9.10;100.00
47104;BME280;32853;52.164;5.400;2023-02-16T00:18:17;102200.91;;;8.64;100.00
47104;BME280;32853;52.164;5.400;2023-02-16T00:20:43;102300.25;;;9.27;100.00
47104;BME280;32853;52.164;5.400;2023-02-16T00:23:13;102276.94;;;9.13;100.00
47104;BME280;32853;52.164;5.400;2023-02-16T00:25:42;102251.94;;;8.92;100.00
47104;BME280;32853;52.164;5.400;2023-02-16T00:28:13;102291.56;;;9.28;100.00
47104;BME280;32853;52.164;5.400;2023-02-16T00:30:48;102289.78;;;9.30;100.00
47104;BME280;32853;52.164;5.400;2023-02-16T00:33:19;102284.69;;;9.21;100.00
47104;BME280;32853;52.164;5.400;2023-02-16T00:35:57;102294.38;;;9.10;100.00
47104;BME280;32853;52.164;5.400;2023-02-16T00:38:22;102266.63;;;9.01;100.00
47104;BME280;32853;52.164;5.400;2023-02-16T00:40:48;102255.34;;;8.99;100.00
47104;BME280;32853;52.164;5.400;2023-02-16T00:43:25;102251.88;;;8.95;100.00
47104;BME280;32853;52.164;5.400;2023-02-16T00:45:52;102279.56;;;9.09;100.00
47104;BME280;32853;52.164;5.400;2023-02-16T00:48:17;102251.19;;;8.80;100.00
47104;BME280;32853;52.164;5.400;2023-02-16T00:50:51;102274.38;;;9.10;100.00
47104;BME280;32853;52.164;5.400;2023-02-16T00:53:17;102259.84;;;8.83;100.00
47104;BME280;32853;52.164;5.400;2023-02-16T00:55:42;102198.28;;;8.64;100.00
47104;BME280;32853;52.164;5.400;2023-02-16T00:58:28;102283.94;;;9.10;100.00
47104;BME280;32853;52.164;5.400;2023-02-16T01:01:01;102098.09;;;8.00;100.00
47104;BME280;32853;52.164;5.400;2023-02-16T01:03:29;102281.31;;;9.08;100.00
47104;BME280;32853;52.164;5.400;2023-02-16T01:05:56;102282.34;;;8.93;100.00
47104;BME280;32853;52.164;5.400;2023-02-16T01:08:40;102265.91;;;8.88;100.00
47104;BME280;32853;52.164;5.400;2023-02-16T01:11:25;102231.34;;;8.66;100.00
47104;BME280;32853;52.164;5.400;2023-02-16T01:13:52;102217.41;;;8.64;100.00
47104;BME280;32853;52.164;5.400;2023-02-16T01:16:21;102214.81;;;8.66;100.00
47104;BME280;32853;52.164;5.400;2023-02-16T01:19:01;102264.91;;;8.98;100.00
47104;BME280;32853;52.164;5.400;2023-02-16T01:21:27;102269.38;;;8.86;100.00
47104;BME280;32853;52.164;5.400;2023-02-16T01:23:52;102262.38;;;8.92;100.00
47104;BME280;32853;52.164;5.400;2023-02-16T01:26:19;102219.16;;;8.64;100.00
47104;BME280;32853;52.164;5.400;2023-02-16T01:28:47;102245.06;;;8.82;100.00
47104;BME280;32853;52.164;5.400;2023-02-16T01:31:13;102266.66;;;8.98;100.00
47104;BME280;32853;52.164;5.400;2023-02-16T01:33:41;102252.75;;;8.96;100.00
47104;BME280;32853;52.164;5.400;2023-02-16T01:36:33;102252.81;;;8.91;100.00
47104;BME280;32853;52.164;5.400;2023-02-16T01:39:19;102254.59;;;8.86;100.00
47104;BME280;32853;52.164;5.400;2023-02-16T01:42:12;102248.53;;;8.84;100.00
47104;BME280;32853;52.164;5.400;2023-02-16T01:44:47;102224.34;;;8.68;100.00
47104;BME280;32853;52.164;5.400;2023-02-16T01:50:22;102255.47;;;8.85;100.00
47104;BME280;32853;52.164;5.400;2023-02-16T01:53:05;102209.53;;;8.72;100.00
47104;BME280;32853;52.164;5.400;2023-02-16T01:55:44;102241.59;;;8.82;100.00
47104;BME280;32853;52.164;5.400;2023-02-16T01:58:35;102242.44;;;8.87;100.00
47104;BME280;32853;52.164;5.400;2023-02-16T02:01:28;102245.88;;;8.90;100.00
47104;BME280;32853;52.164;5.400;2023-02-16T02:06:59;102177.50;;;8.58;100.00
47104;BME280;32853;52.164;5.400;2023-02-16T02:09:34;102231.88;;;8.96;100.00
47104;BME280;32853;52.164;5.400;2023-02-16T02:12:25;102221.56;;;8.84;100.00
47104;BME280;32853;52.164;5.400;2023-02-16T02:14:53;102229.25;;;8.97;100.00
47104;BME280;32853;52.164;5.400;2023-02-16T02:17:42;102229.31;;;8.91;100.00
47104;BME280;32853;52.164;5.400;2023-02-16T02:20:24;102227.53;;;8.96;100.00
47104;BME280;32853;52.164;5.400;2023-02-16T02:29:38;102222.41;;;8.89;100.00
47104;BME280;32853;52.164;5.400;2023-02-16T02:32:21;102216.28;;;8.91;100.00
47104;BME280;32853;52.164;5.400;2023-02-16T02:38:29;102209.09;;;9.09;100.00
47104;BME280;32853;52.164;5.400;2023-02-16T02:41:23;102215.25;;;9.06;100.00
47104;BME280;32853;52.164;5.400;2023-02-16T02:44:47;102207.38;;;9.11;100.00
47104;BME280;32853;52.164;5.400;2023-02-16T02:47:17;102205.66;;;9.07;100.00
47104;BME280;32853;52.164;5.400;2023-02-16T02:49:53;102195.31;;;9.00;100.00
47104;BME280;32853;52.164;5.400;2023-02-16T02:52:25;102201.22;;;9.15;100.00
47104;BME280;32853;52.164;5.400;2023-02-16T02:54:51;102178.81;;;8.95;100.00
47104;BME280;32853;52.164;5.400;2023-02-16T02:57:46;102147.78;;;8.72;100.00
47104;BME280;32853;52.164;5.400;2023-02-16T03:00:35;102134.81;;;8.68;100.00
47104;BME280;32853;52.164;5.400;2023-02-16T03:03:32;102190.72;;;9.18;100.00
47104;BME280;32853;52.164;5.400;2023-02-16T03:06:29;102195.13;;;9.16;100.00
47104;BME280;32853;52.164;5.400;2023-02-16T03:09:05;102094.09;;;8.56;100.00
47104;BME280;32853;52.164;5.400;2023-02-16T03:11:31;102109.84;;;8.47;100.00
47104;BME280;32853;52.164;5.400;2023-02-16T03:14:25;102191.66;;;9.15;100.00
47104;BME280;32853;52.164;5.400;2023-02-16T03:16:59;102179.44;;;9.17;100.00
47104;BME280;32853;52.164;5.400;2023-02-16T03:19:45;102086.31;;;8.52;100.00
47104;BME280;32853;52.164;5.400;2023-02-16T03:22:31;102162.97;;;9.12;100.00
47104;BME280;32853;52.164;5.400;2023-02-16T03:25:21;102163.94;;;9.03;100.00
47104;BME280;32853;52.164;5.400;2023-02-16T03:28:09;102124.22;;;8.82;100.00
47104;BME280;32853;52.164;5.400;2023-02-16T03:30:55;102128.47;;;8.89;100.00
47104;BME280;32853;52.164;5.400;2023-02-16T03:33:23;102172.56;;;9.12;100.00
47104;BME280;32853;52.164;5.400;2023-02-16T03:38:44;102133.72;;;8.86;100.00
47104;BME280;32853;52.164;5.400;2023-02-16T03:41:10;102123.41;;;8.75;100.00
47104;BME280;32853;52.164;5.400;2023-02-16T03:43:50;102173.47;;;9.08;100.00
47104;BME280;32853;52.164;5.400;2023-02-16T03:46:23;102139.81;;;8.88;100.00
47104;BME280;32853;52.164;5.400;2023-02-16T03:49:01;102182.94;;;9.15;100.00
47104;BME280;32853;52.164;5.400;2023-02-16T03:51:34;102088.84;;;8.59;100.00
47104;BME280;32853;52.164;5.400;2023-02-16T03:54:01;102164.84;;;9.02;100.00
47104;BME280;32853;52.164;5.400;2023-02-16T03:56:30;102175.16;;;9.12;100.00
47104;BME280;32853;52.164;5.400;2023-02-16T03:58:58;102072.44;;;8.50;100.00
47104;BME280;32853;52.164;5.400;2023-02-16T04:01:24;102094.97;;;8.55;100.00
47104;BME280;32853;52.164;5.400;2023-02-16T04:04:02;102127.63;;;8.88;100.00
47104;BME280;32853;52.164;5.400;2023-02-16T04:06:28;102185.50;;;9.19;100.00
47104;BME280;32853;52.164;5.400;2023-02-16T04:08:53;102062.97;;;8.39;100.00
47104;BME280;32853;52.164;5.400;2023-02-16T04:11:22;102164.84;;;9.01;100.00
47104;BME280;32853;52.164;5.400;2023-02-16T04:14:13;102190.72;;;9.18;100.00
47104;BME280;32853;52.164;5.400;2023-02-16T04:16:47;102197.00;;;9.05;100.00
47104;BME280;32853;52.164;5.400;2023-02-16T04:19:12;102138.06;;;8.88;100.00
47104;BME280;32853;52.164;5.400;2023-02-16T04:21:38;102126.06;;;8.72;100.00
47104;BME280;32853;52.164;5.400;2023-02-16T04:24:03;102190.00;;;9.07;100.00
47104;BME280;32853;52.164;5.400;2023-02-16T04:26:30;102184.88;;;9.00;100.00
47104;BME280;32853;52.164;5.400;2023-02-16T04:29:07;102180.44;;;9.06;100.00
47104;BME280;32853;52.164;5.400;2023-02-16T04:31:32;102188.22;;;9.09;100.00
47104;BME280;32853;52.164;5.400;2023-02-16T04:33:57;102180.38;;;9.12;100.00
47104;BME280;32853;52.164;5.400;2023-02-16T04:36:27;102172.47;;;9.18;100.00
47104;BME280;32853;52.164;5.400;2023-02-16T04:38:52;102131.09;;;8.86;100.00
47104;BME280;32853;52.164;5.400;2023-02-16T04:41:17;102113.78;;;8.82;100.00
47104;BME280;32853;52.164;5.400;2023-02-16T04:43:43;102144.13;;;8.89;100.00
47104;BME280;32853;52.164;5.400;2023-02-16T04:46:08;102167.44;;;9.02;100.00
47104;BME280;32853;52.164;5.400;2023-02-16T04:48:38;102172.53;;;9.13;100.00
47104;BME280;32853;52.164;5.400;2023-02-16T04:51:05;102150.16;;;8.94;100.00
47104;BME280;32853;52.164;5.400;2023-02-16T04:53:37;102189.84;;;9.22;100.00
47104;BME280;32853;52.164;5.400;2023-02-16T04:56:16;102154.22;;;9.16;100.00
47104;BME280;32853;52.164;5.400;2023-02-16T04:58:41;102143.88;;;9.09;100.00
47104;BME280;32853;52.164;5.400;2023-02-16T05:01:08;102089.44;;;8.81;100.00
47104;BME280;32853;52.164;5.400;2023-02-16T05:03:36;102172.38;;;9.25;100.00
47104;BME280;32853;52.164;5.400;2023-02-16T05:06:18;102157.66;;;9.21;100.00
47104;BME280;32853;52.164;5.400;2023-02-16T05:08:45;102175.06;;;9.21;100.00
47104;BME280;32853;52.164;5.400;2023-02-16T05:11:11;102163.84;;;9.13;100.00
47104;BME280;32853;52.164;5.400;2023-02-16T05:13:56;102035.22;;;8.37;100.00
47104;BME280;32853;52.164;5.400;2023-02-16T05:16:40;102136.13;;;9.02;100.00
47104;BME280;32853;52.164;5.400;2023-02-16T05:19:14;102102.25;;;8.99;100.00
47104;BME280;32853;52.164;5.400;2023-02-16T05:21:44;102162.81;;;9.24;100.00
47104;BME280;32853;52.164;5.400;2023-02-16T05:24:10;101933.22;;;7.91;100.00
47104;BME280;32853;52.164;5.400;2023-02-16T05:26:37;102079.75;;;8.91;100.00
47104;BME280;32853;52.164;5.400;2023-02-16T05:29:04;102148.63;;;9.44;100.00
47104;BME280;32853;52.164;5.400;2023-02-16T05:31:31;102128.00;;;9.25;100.00
47104;BME280;32853;52.164;5.400;2023-02-16T05:34:09;102082.91;;;9.14;100.00
47104;BME280;32853;52.164;5.400;2023-02-16T05:36:38;102137.34;;;9.43;100.00
47104;BME280;32853;52.164;5.400;2023-02-16T05:39:03;102142.69;;;9.34;100.00
47104;BME280;32853;52.164;5.400;2023-02-16T05:41:29;102127.91;;;9.33;100.00
47104;BME280;32853;52.164;5.400;2023-02-16T05:43:56;102141.63;;;9.47;100.00
47104;BME280;32853;52.164;5.400;2023-02-16T05:46:23;102146.94;;;9.40;100.00
47104;BME280;32853;52.164;5.400;2023-02-16T05:48:49;102148.78;;;9.33;100.00
47104;BME280;32853;52.164;5.400;2023-02-16T05:51:20;102138.38;;;9.28;100.00
47104;BME280;32853;52.164;5.400;2023-02-16T05:53:46;102115.94;;;9.17;100.00
47104;BME280;32853;52.164;5.400;2023-02-16T05:56:16;102145.34;;;9.29;100.00
47104;BME280;32853;52.164;5.400;2023-02-16T05:58:46;102146.41;;;9.15;100.00
47104;BME280;32853;52.164;5.400;2023-02-16T06:01:19;101942.66;;;8.01;100.00
47104;BME280;32853;52.164;5.400;2023-02-16T06:03:51;102073.91;;;8.72;100.00
47104;BME280;32853;52.164;5.400;2023-02-16T06:06:25;102031.53;;;8.53;100.00
47104;BME280;32853;52.164;5.400;2023-02-16T06:08:52;102113.66;;;8.92;100.00
47104;BME280;32853;52.164;5.400;2023-02-16T06:11:17;102077.97;;;8.94;100.00
47104;BME280;32853;52.164;5.400;2023-02-16T06:14:03;102098.00;;;8.92;100.00
47104;BME280;32853;52.164;5.400;2023-02-16T06:16:30;102155.94;;;9.20;100.00
47104;BME280;32853;52.164;5.400;2023-02-16T06:18:56;102157.50;;;9.30;100.00
47104;BME280;32853;52.164;5.400;2023-02-16T06:21:22;102033.41;;;8.43;100.00
47104;BME280;32853;52.164;5.400;2023-02-16T06:23:48;102087.03;;;8.63;100.00
47104;BME280;32853;52.164;5.400;2023-02-16T06:26:15;102161.06;;;9.25;100.00
47104;BME280;32853;52.164;5.400;2023-02-16T06:28:40;102143.81;;;9.15;100.00
47104;BME280;32853;52.164;5.400;2023-02-16T06:31:06;102111.91;;;8.91;100.00
47104;BME280;32853;52.164;5.400;2023-02-16T06:33:31;102162.97;;;9.14;100.00
47104;BME280;32853;52.164;5.400;2023-02-16T06:35:57;102098.84;;;8.93;100.00
47104;BME280;32853;52.164;5.400;2023-02-16T06:38:22;102091.13;;;8.85;100.00
47104;BME280;32853;52.164;5.400;2023-02-16T06:40:51;102057.59;;;8.56;100.00
47104;BME280;32853;52.164;5.400;2023-02-16T06:43:16;102148.25;;;9.07;100.00
47104;BME280;32853;52.164;5.400;2023-02-16T06:45:41;101951.47;;;7.91;100.00
47104;BME280;32853;52.164;5.400;2023-02-16T06:48:07;102064.38;;;8.69;100.00
47104;BME280;32853;52.164;5.400;2023-02-16T06:50:32;102108.44;;;8.92;100.00
47104;BME280;32853;52.164;5.400;2023-02-16T06:52:59;102122.91;;;9.16;100.00
47104;BME280;32853;52.164;5.400;2023-02-16T06:55:26;102123.81;;;9.14;100.00
47104;BME280;32853;52.164;5.400;2023-02-16T06:58:05;102110.06;;;9.01;100.00
47104;BME280;32853;52.164;5.400;2023-02-16T07:00:31;102159.28;;;9.28;100.00
47104;BME280;32853;52.164;5.400;2023-02-16T07:03:00;101972.81;;;8.23;100.00
47104;BME280;32853;52.164;5.400;2023-02-16T07:05:25;102140.25;;;9.19;100.00
47104;BME280;32853;52.164;5.400;2023-02-16T07:07:51;102182.91;;;9.18;100.00
47104;BME280;32853;52.164;5.400;2023-02-16T07:10:17;102124.72;;;9.11;100.00
47104;BME280;32853;52.164;5.400;2023-02-16T07:12:51;102122.84;;;9.19;100.00
47104;BME280;32853;52.164;5.400;2023-02-16T07:15:16;102170.44;;;9.40;100.00
47104;BME280;32853;52.164;5.400;2023-02-16T07:17:42;102140.41;;;9.08;100.00
47104;BME280;32853;52.164;5.400;2023-02-16T07:20:18;102186.91;;;9.45;100.00
47104;BME280;32853;52.164;5.400;2023-02-16T07:22:44;102164.53;;;9.25;100.00
47104;BME280;32853;52.164;5.400;2023-02-16T07:25:09;102133.31;;;9.18;100.00
47104;BME280;32853;52.164;5.400;2023-02-16T07:27:34;102183.50;;;9.38;100.00
47104;BME280;32853;52.164;5.400;2023-02-16T07:30:00;102161.88;;;9.28;100.00
47104;BME280;32853;52.164;5.400;2023-02-16T07:32:27;102120.41;;;9.07;100.00
47104;BME280;32853;52.164;5.400;2023-02-16T07:34:53;102179.06;;;9.46;100.00
47104;BME280;32853;52.164;5.400;2023-02-16T07:37:18;102139.41;;;9.17;100.00
47104;BME280;32853;52.164;5.400;2023-02-16T07:39:43;102150.78;;;9.14;100.00
47104;BME280;32853;52.164;5.400;2023-02-16T07:42:08;102173.88;;;9.42;100.00
47104;BME280;32853;52.164;5.400;2023-02-16T07:44:36;102198.03;;;9.59;100.00
47104;BME280;32853;52.164;5.400;2023-02-16T07:47:08;102197.97;;;9.62;100.00
47104;BME280;32853;52.164;5.400;2023-02-16T07:49:37;102195.31;;;9.67;100.00
47104;BME280;32853;52.164;5.400;2023-02-16T07:52:03;102186.06;;;9.44;100.00
47104;BME280;32853;52.164;5.400;2023-02-16T07:54:30;102178.09;;;9.52;100.00
47104;BME280;32853;52.164;5.400;2023-02-16T07:56:56;102170.38;;;9.44;100.00
47104;BME280;32853;52.164;5.400;2023-02-16T07:59:21;102182.41;;;9.56;100.00
47104;BME280;32853;52.164;5.400;2023-02-16T08:01:46;102202.47;;;9.54;100.00
47104;BME280;32853;52.164;5.400;2023-02-16T08:04:11;102179.13;;;9.40;100.00
47104;BME280;32853;52.164;5.400;2023-02-16T08:06:37;102192.94;;;9.50;100.00
47104;BME280;32853;52.164;5.400;2023-02-16T08:09:03;102175.63;;;9.44;100.00
47104;BME280;32853;52.164;5.400;2023-02-16T08:11:28;102196.28;;;9.59;100.00
47104;BME280;32853;52.164;5.400;2023-02-16T08:13:54;102204.81;;;9.71;100.00
47104;BME280;32853;52.164;5.400;2023-02-16T08:16:21;102167.97;;;9.29;100.00
47104;BME280;32853;52.164;5.400;2023-02-16T08:18:47;102139.53;;;9.09;100.00
47104;BME280;32853;52.164;5.400;2023-02-16T08:21:16;102208.31;;;9.71;100.00
47104;BME280;32853;52.164;5.400;2023-02-16T08:23:50;102217.88;;;9.71;100.00
47104;BME280;32853;52.164;5.400;2023-02-16T08:26:18;102173.16;;;9.30;100.00
47104;BME280;32853;52.164;5.400;2023-02-16T08:28:47;102119.53;;;9.10;100.00
47104;BME280;32853;52.164;5.400;2023-02-16T08:31:15;102223.16;;;9.68;100.00
47104;BME280;32853;52.164;5.400;2023-02-16T08:33:41;102189.69;;;9.34;100.00
47104;BME280;32853;52.164;5.400;2023-02-16T08:36:26;102195.69;;;9.39;100.00
47104;BME280;32853;52.164;5.400;2023-02-16T08:38:54;102204.25;;;9.49;100.00
47104;BME280;32853;52.164;5.400;2023-02-16T08:41:22;102225.81;;;9.66;100.00
47104;BME280;32853;52.164;5.400;2023-02-16T08:43:48;102050.59;;;8.60;100.00
47104;BME280;32853;52.164;5.400;2023-02-16T08:46:15;102147.91;;;9.34;100.00
47104;BME280;32853;52.164;5.400;2023-02-16T08:48:43;102248.47;;;9.63;100.00
47104;BME280;32853;52.164;5.400;2023-02-16T08:51:18;102076.47;;;8.77;100.00
47104;BME280;32853;52.164;5.400;2023-02-16T08:53:45;102228.28;;;9.74;100.00
47104;BME280;32853;52.164;5.400;2023-02-16T08:56:11;102222.16;;;9.78;100.00
47104;BME280;32853;52.164;5.400;2023-02-16T08:58:37;102157.41;;;9.38;100.00
47104;BME280;32853;52.164;5.400;2023-02-16T09:01:08;102235.94;;;9.89;100.00
47104;BME280;32853;52.164;5.400;2023-02-16T09:03:35;102239.47;;;9.83;100.00
47104;BME280;32853;52.164;5.400;2023-02-16T09:06:02;102230.78;;;9.83;100.00
47104;BME280;32853;52.164;5.400;2023-02-16T09:08:29;102235.06;;;9.88;100.00
47104;BME280;32853;52.164;5.400;2023-02-16T09:10:55;102255.88;;;9.95;100.00
47104;BME280;32853;52.164;5.400;2023-02-16T09:13:27;102239.41;;;9.86;100.00
47104;BME280;32853;52.164;5.400;2023-02-16T09:15:52;102192.13;;;9.46;100.00
47104;BME280;32853;52.164;5.400;2023-02-16T09:18:18;102056.44;;;8.79;100.00
47104;BME280;32853;52.164;5.400;2023-02-16T09:20:44;102108.09;;;9.17;100.00
47104;BME280;32853;52.164;5.400;2023-02-16T09:23:10;102254.34;;;9.80;100.00
47104;BME280;32853;52.164;5.400;2023-02-16T09:25:38;102223.06;;;9.74;100.00
47104;BME280;32853;52.164;5.400;2023-02-16T09:28:04;102253.47;;;9.79;100.00
47104;BME280;32853;52.164;5.400;2023-02-16T09:30:31;102239.91;;;9.51;100.00
47104;BME280;32853;52.164;5.400;2023-02-16T09:33:00;102090.50;;;8.66;100.00
47104;BME280;32853;52.164;5.400;2023-02-16T09:35:25;102163.00;;;9.11;100.00
47104;BME280;32853;52.164;5.400;2023-02-16T09:37:52;102199.19;;;9.37;100.00
47104;BME280;32853;52.164;5.400;2023-02-16T09:40:23;102220.78;;;9.49;100.00
47104;BME280;32853;52.164;5.400;2023-02-16T09:43:07;102211.28;;;9.45;100.00
47104;BME280;32853;52.164;5.400;2023-02-16T09:45:41;102123.28;;;8.89;100.00
47104;BME280;32853;52.164;5.400;2023-02-16T09:48:22;102236.41;;;9.52;100.00
47104;BME280;32853;52.164;5.400;2023-02-16T09:50:49;102234.50;;;9.67;100.00
47104;BME280;32853;52.164;5.400;2023-02-16T09:53:37;102233.47;;;9.78;100.00
47104;BME280;32853;52.164;5.400;2023-02-16T09:56:15;102217.94;;;9.68;100.00
47104;BME280;32853;52.164;5.400;2023-02-16T09:58:48;102233.44;;;9.80;100.00
47104;BME280;32853;52.164;5.400;2023-02-16T10:01:32;102238.13;;;9.56;100.00
47104;BME280;32853;52.164;5.400;2023-02-16T10:04:04;102246.72;;;9.65;100.00
47104;BME280;32853;52.164;5.400;2023-02-16T10:09:10;102187.94;;;9.35;100.00
47104;BME280;32853;52.164;5.400;2023-02-16T10:11:52;102240.69;;;9.59;100.00
47104;BME280;32853;52.164;5.400;2023-02-16T10:17:24;102239.69;;;9.68;100.00
47104;BME280;32853;52.164;5.400;2023-02-16T10:20:11;102237.75;;;9.82;100.00
47104;BME280;32853;52.164;5.400;2023-02-16T10:23:21;102205.78;;;9.67;100.00
47104;BME280;32853;52.164;5.400;2023-02-16T10:26:16;102232.31;;;9.96;100.00
47104;BME280;32853;52.164;5.400;2023-02-16T10:28:52;102221.09;;;9.89;100.00
47104;BME280;32853;52.164;5.400;2023-02-16T10:31:50;102235.63;;;10.07;100.00
47104;BME280;32853;52.164;5.400;2023-02-16T10:42:55;102234.75;;;10.10;100.00
47104;BME280;32853;52.164;5.400;2023-02-16T10:48:15;102232.81;;;10.21;100.00
47104;BME280;32853;52.164;5.400;2023-02-16T10:50:45;102245.13;;;10.14;100.00
47104;BME280;32853;52.164;5.400;2023-02-16T10:53:20;102219.16;;;10.02;100.00
47104;BME280;32853;52.164;5.400;2023-02-16T10:55:48;102251.13;;;10.23;100.00
47104;BME280;32853;52.164;5.400;2023-02-16T10:58:23;102230.56;;;9.97;100.00
47104;BME280;32853;52.164;5.400;2023-02-16T11:01:04;102224.75;;;10.36;100.00
47104;BME280;32853;52.164;5.400;2023-02-16T11:03:38;102214.53;;;10.21;100.00
47104;BME280;32853;52.164;5.400;2023-02-16T11:06:19;102213.38;;;10.39;100.00
47104;BME280;32853;52.164;5.400;2023-02-16T11:08:50;102217.59;;;10.47;100.00
47104;BME280;32853;52.164;5.400;2023-02-16T11:11:16;102230.81;;;10.38;100.00
47104;BME280;32853;52.164;5.400;2023-02-16T11:13:48;102210.72;;;10.42;100.00
47104;BME280;32853;52.164;5.400;2023-02-16T11:16:22;102207.22;;;10.43;100.00
47104;BME280;32853;52.164;5.400;2023-02-16T11:19:06;102213.78;;;10.65;100.00
47104;BME280;32853;52.164;5.400;2023-02-16T11:22:04;102197.22;;;10.65;100.00
47104;BME280;32853;52.164;5.400;2023-02-16T11:24:35;102185.22;;;10.55;100.00
47104;BME280;32853;52.164;5.400;2023-02-16T11:27:24;102186.81;;;10.62;100.00
47104;BME280;32853;52.164;5.400;2023-02-16T11:30:26;102193.94;;;10.52;100.00
47104;BME280;32853;52.164;5.400;2023-02-16T11:32:53;102198.16;;;10.61;100.00
47104;BME280;32853;52.164;5.400;2023-02-16T11:35:23;102187.31;;;10.81;100.00
47104;BME280;32853;52.164;5.400;2023-02-16T11:37:48;102126.97;;;10.45;100.00
47104;BME280;32853;52.164;5.400;2023-02-16T11:40:26;102164.03;;;10.67;100.00
47104;BME280;32853;52.164;5.400;2023-02-16T11:42:55;102149.34;;;10.60;100.00
47104;BME280;32853;52.164;5.400;2023-02-16T11:47:52;102151.63;;;10.78;100.00
47104;BME280;32853;52.164;5.400;2023-02-16T11:52:52;102154.66;;;11.00;100.00
47104;BME280;32853;52.164;5.400;2023-02-16T11:55:28;102181.25;;;11.22;100.00
47104;BME280;32853;52.164;5.400;2023-02-16T11:58:23;102183.03;;;11.21;100.00
47104;BME280;32853;52.164;5.400;2023-02-16T12:01:00;102175.09;;;11.24;100.00
47104;BME280;32853;52.164;5.400;2023-02-16T12:16:14;102153.88;;;11.37;100.00
47104;BME280;32853;52.164;5.400;2023-02-16T12:27:06;102128.34;;;11.46;100.00
47104;BME280;32853;52.164;5.400;2023-02-16T12:29:45;102120.03;;;11.66;100.00
47104;BME280;32853;52.164;5.400;2023-02-16T12:43:44;102094.53;;;12.08;100.00
47104;BME280;32853;52.164;5.400;2023-02-16T12:46:25;102011.16;;;11.88;100.00
47104;BME280;32853;52.164;5.400;2023-02-16T12:48:57;102090.09;;;12.43;100.00
47104;BME280;32853;52.164;5.400;2023-02-16T12:51:31;102075.38;;;12.37;100.00
47104;BME280;32853;52.164;5.400;2023-02-16T13:05:49;102014.94;;;12.40;100.00
47104;BME280;32853;52.164;5.400;2023-02-16T13:11:48;102067.59;;;12.95;100.00
47104;BME280;32853;52.164;5.400;2023-02-16T13:14:17;102049.13;;;12.68;100.00
47104;BME280;32853;52.164;5.400;2023-02-16T13:17:15;102058.00;;;12.64;100.00
47104;BME280;32853;52.164;5.400;2023-02-16T13:19:42;102015.63;;;12.47;100.00
47104;BME280;32853;52.164;5.400;2023-02-16T13:22:17;102068.66;;;12.89;100.00
47104;BME280;32853;52.164;5.400;2023-02-16T13:27:53;102059.25;;;13.10;100.00
47104;BME280;32853;52.164;5.400;2023-02-16T13:30:43;102022.09;;;12.94;100.00
47104;BME280;32853;52.164;5.400;2023-02-16T13:36:08;102036.59;;;13.06;100.00
47104;BME280;32853;52.164;5.400;2023-02-16T13:44:43;102017.53;;;13.29;100.00
47104;BME280;32853;52.164;5.400;2023-02-16T13:47:17;101982.22;;;13.09;100.00
47104;BME280;32853;52.164;5.400;2023-02-16T13:50:05;102015.84;;;13.26;100.00
47104;BME280;32853;52.164;5.400;2023-02-16T13:52:41;102003.91;;;13.44;100.00
47104;BME280;32853;52.164;5.400;2023-02-16T13:55:30;102022.13;;;13.49;100.00
47104;BME280;32853;52.164;5.400;2023-02-16T14:00:47;102002.06;;;13.46;100.00
47104;BME280;32853;52.164;5.400;2023-02-16T14:05:45;102003.50;;;13.56;100.00
47104;BME280;32853;52.164;5.400;2023-02-16T14:08:18;102011.31;;;13.58;100.00
47104;BME280;32853;52.164;5.400;2023-02-16T14:16:10;101982.50;;;13.55;100.00
47104;BME280;32853;52.164;5.400;2023-02-16T14:22:08;101954.28;;;13.35;100.00
47104;BME280;32853;52.164;5.400;2023-02-16T14:24:38;101987.97;;;13.22;100.00
47104;BME280;32853;52.164;5.400;2023-02-16T14:30:19;101978.84;;;13.59;100.00
47104;BME280;32853;52.164;5.400;2023-02-16T14:33:04;101989.81;;;13.72;100.00
47104;BME280;32853;52.164;5.400;2023-02-16T14:35:36;101966.63;;;13.58;100.00
47104;BME280;32853;52.164;5.400;2023-02-16T14:38:25;101984.16;;;13.57;100.00
47104;BME280;32853;52.164;5.400;2023-02-16T14:44:10;101973.19;;;13.71;100.00
47104;BME280;32853;52.164;5.400;2023-02-16T14:46:55;101972.19;;;13.75;100.00
47104;BME280;32853;52.164;5.400;2023-02-16T14:57:52;101930.06;;;13.25;100.00
47104;BME280;32853;52.164;5.400;2023-02-16T15:03:25;101979.25;;;13.22;100.00
47104;BME280;32853;52.164;5.400;2023-02-16T15:06:04;101980.53;;;13.08;100.00
47104;BME280;32853;52.164;5.400;2023-02-16T15:08:33;101985.63;;;13.13;100.00
47104;BME280;32853;52.164;5.400;2023-02-16T15:11:23;101934.41;;;13.00;100.00
47104;BME280;32853;52.164;5.400;2023-02-16T15:13:52;101885.88;;;12.57;100.00
47104;BME280;32853;52.164;5.400;2023-02-16T15:16:24;101857.91;;;12.28;100.00
47104;BME280;32853;52.164;5.400;2023-02-16T15:18:51;101910.53;;;12.79;100.00
47104;BME280;32853;52.164;5.400;2023-02-16T15:21:23;101959.19;;;13.18;100.00
47104;BME280;32853;52.164;5.400;2023-02-16T15:23:57;101983.19;;;13.35;100.00
47104;BME280;32853;52.164;5.400;2023-02-16T15:26:35;101954.16;;;12.84;100.00
47104;BME280;32853;52.164;5.400;2023-02-16T15:29:23;101982.50;;;12.72;100.00